sensor_id;sensor_type;location;lat;lon;timestamp;temperature;humidity
51215;DHT22;41093;47.444;19.134;2022-09-20T00:01:21;10.20;85.30
51215;DHT22;41093;47.444;19.134;2022-09-20T00:03:49;10.30;85.20
51215;DHT22;41093;47.444;19.134;2022-09-20T00:06:18;10.30;84.60
51215;DHT22;41093;47.444;19.134;2022-09-20T00:08:45;10.20;84.60
51215;DHT22;41093;47.444;19.134;2022-09-20T00:11:23;10.20;84.70
51215;DHT22;41093;47.444;19.134;2022-09-20T00:13:51;10.20;84.60
51215;DHT22;41093;47.444;19.134;2022-09-20T00:16:29;10.20;84.80
51215;DHT22;41093;47.444;19.134;2022-09-20T00:18:57;10.20;84.70
51215;DHT22;41093;47.444;19.134;2022-09-20T00:21:28;10.20;84.70
51215;DHT22;41093;47.444;19.134;2022-09-20T00:23:55;10.10;84.70
51215;DHT22;41093;47.444;19.134;2022-09-20T00:26:22;10.20;84.80
51215;DHT22;41093;47.444;19.134;2022-09-20T00:28:48;10.30;84.30
51215;DHT22;41093;47.444;19.134;2022-09-20T00:31:15;10.30;84.20
51215;DHT22;41093;47.444;19.134;2022-09-20T00:33:41;10.30;84.20
51215;DHT22;41093;47.444;19.134;2022-09-20T00:36:25;10.30;84.30
51215;DHT22;41093;47.444;19.134;2022-09-20T00:38:55;10.40;84.20
51215;DHT22;41093;47.444;19.134;2022-09-20T00:41:21;10.40;84.20
51215;DHT22;41093;47.444;19.134;2022-09-20T00:43:47;10.40;84.20
51215;DHT22;41093;47.444;19.134;2022-09-20T00:46:27;10.50;84.00
51215;DHT22;41093;47.444;19.134;2022-09-20T00:51:38;10.40;84.10
51215;DHT22;41093;47.444;19.134;2022-09-20T00:54:07;10.40;84.00
51215;DHT22;41093;47.444;19.134;2022-09-20T00:56:36;10.40;83.80
51215;DHT22;41093;47.444;19.134;2022-09-20T00:59:21;10.40;83.80
51215;DHT22;41093;47.444;19.134;2022-09-20T01:01:57;10.40;84.00
51215;DHT22;41093;47.444;19.134;2022-09-20T01:04:26;10.40;83.70
51215;DHT22;41093;47.444;19.134;2022-09-20T01:06:55;10.40;83.70
51215;DHT22;41093;47.444;19.134;2022-09-20T01:09:22;10.30;83.70
51215;DHT22;41093;47.444;19.134;2022-09-20T01:11:49;10.30;83.80
51215;DHT22;41093;47.444;19.134;2022-09-20T01:14:17;10.30;84.00
51215;DHT22;41093;47.444;19.134;2022-09-20T01:16:44;10.30;83.80
51215;DHT22;41093;47.444;19.134;2022-09-20T01:21:52;10.30;83.70
51215;DHT22;41093;47.444;19.134;2022-09-20T01:24:27;10.20;83.70
51215;DHT22;41093;47.444;19.134;2022-09-20T01:27:22;10.20;83.70
51215;DHT22;41093;47.444;19.134;2022-09-20T01:32:40;10.20;83.70
51215;DHT22;41093;47.444;19.134;2022-09-20T01:35:09;10.20;83.60
51215;DHT22;41093;47.444;19.134;2022-09-20T01:40:49;10.20;83.60
51215;DHT22;41093;47.444;19.134;2022-09-20T01:46:28;10.10;83.70
51215;DHT22;41093;47.444;19.134;2022-09-20T01:49:22;10.00;83.80
51215;DHT22;41093;47.444;19.134;2022-09-20T01:52:10;10.00;83.90
51215;DHT22;41093;47.444;19.134;2022-09-20T01:57:31;10.10;83.70
51215;DHT22;41093;47.444;19.134;2022-09-20T02:00:12;10.10;83.60
51215;DHT22;41093;47.444;19.134;2022-09-20T02:24:38;9.90;84.40
51215;DHT22;41093;47.444;19.134;2022-09-20T02:30:14;9.80;85.10
51215;DHT22;41093;47.444;19.134;2022-09-20T02:33:05;9.80;85.30
51215;DHT22;41093;47.444;19.134;2022-09-20T02:36:05;9.70;85.40
51215;DHT22;41093;47.444;19.134;2022-09-20T02:39:05;9.60;85.50
51215;DHT22;41093;47.444;19.134;2022-09-20T02:52:35;9.30;86.70
51215;DHT22;41093;47.444;19.134;2022-09-20T02:58:49;9.10;87.00
51215;DHT22;41093;47.444;19.134;2022-09-20T03:03:58;9.00;87.60
51215;DHT22;41093;47.444;19.134;2022-09-20T03:06:37;9.00;87.70
51215;DHT22;41093;47.444;19.134;2022-09-20T03:09:43;9.10;87.50
51215;DHT22;41093;47.444;19.134;2022-09-20T03:18:14;9.00;87.40
51215;DHT22;41093;47.444;19.134;2022-09-20T03:20:51;9.10;87.50
51215;DHT22;41093;47.444;19.134;2022-09-20T03:23:40;9.00;87.40
51215;DHT22;41093;47.444;19.134;2022-09-20T03:29:07;8.80;87.40
51215;DHT22;41093;47.444;19.134;2022-09-20T03:31:46;8.80;87.50
51215;DHT22;41093;47.444;19.134;2022-09-20T03:34:46;8.70;87.70
51215;DHT22;41093;47.444;19.134;2022-09-20T03:37:21;8.60;87.90
51215;DHT22;41093;47.444;19.134;2022-09-20T03:46:20;8.60;88.90
51215;DHT22;41093;47.444;19.134;2022-09-20T04:12:38;8.70;88.90
51215;DHT22;41093;47.444;19.134;2022-09-20T04:15:31;8.70;88.80
51215;DHT22;41093;47.444;19.134;2022-09-20T04:26:27;8.90;88.00
51215;DHT22;41093;47.444;19.134;2022-09-20T04:31:44;8.80;88.20
51215;DHT22;41093;47.444;19.134;2022-09-20T04:34:18;8.90;88.30
51215;DHT22;41093;47.444;19.134;2022-09-20T04:37:00;9.00;88.10
51215;DHT22;41093;47.444;19.134;2022-09-20T04:39:36;9.10;88.00
51215;DHT22;41093;47.444;19.134;2022-09-20T04:45:30;9.00;87.80
51215;DHT22;41093;47.444;19.134;2022-09-20T04:51:15;9.20;87.60
51215;DHT22;41093;47.444;19.134;2022-09-20T04:57:14;9.20;87.30
51215;DHT22;41093;47.444;19.134;2022-09-20T05:19:05;9.80;85.80
51215;DHT22;41093;47.444;19.134;2022-09-20T05:24:54;14.90;73.30
51215;DHT22;41093;47.444;19.134;2022-09-20T05:27:47;18.40;60.50
51215;DHT22;41093;47.444;19.134;2022-09-20T05:36:16;24.30;39.50
51215;DHT22;41093;47.444;19.134;2022-09-20T05:38:47;25.60;36.20
51215;DHT22;41093;47.444;19.134;2022-09-20T05:46:52;25.20;35.80
51215;DHT22;41093;47.444;19.134;2022-09-20T06:00:14;21.60;42.00
51215;DHT22;41093;47.444;19.134;2022-09-20T06:02:55;20.60;43.80
51215;DHT22;41093;47.444;19.134;2022-09-20T06:20:32;20.60;45.80
51215;DHT22;41093;47.444;19.134;2022-09-20T06:23:00;23.60;39.80
51215;DHT22;41093;47.444;19.134;2022-09-20T06:25:49;24.40;37.50
51215;DHT22;41093;47.444;19.134;2022-09-20T06:28:25;24.40;37.60
51215;DHT22;41093;47.444;19.134;2022-09-20T06:30:54;23.60;38.30
51215;DHT22;41093;47.444;19.134;2022-09-20T06:33:24;24.30;37.30
51215;DHT22;41093;47.444;19.134;2022-09-20T06:38:27;27.20;33.30
51215;DHT22;41093;47.444;19.134;2022-09-20T06:41:16;28.70;30.80
51215;DHT22;41093;47.444;19.134;2022-09-20T06:44:02;28.10;31.20
51215;DHT22;41093;47.444;19.134;2022-09-20T06:46:33;28.50;30.70
51215;DHT22;41093;47.444;19.134;2022-09-20T06:48:59;26.80;32.30
51215;DHT22;41093;47.444;19.134;2022-09-20T06:51:27;27.30;32.90
51215;DHT22;41093;47.444;19.134;2022-09-20T06:53:55;27.30;33.00
51215;DHT22;41093;47.444;19.134;2022-09-20T06:56:26;27.30;32.70
51215;DHT22;41093;47.444;19.134;2022-09-20T06:58:53;26.40;35.00
51215;DHT22;41093;47.444;19.134;2022-09-20T07:01:19;26.50;34.30
51215;DHT22;41093;47.444;19.134;2022-09-20T07:03:45;27.00;33.30
51215;DHT22;41093;47.444;19.134;2022-09-20T07:06:11;28.40;30.90
51215;DHT22;41093;47.444;19.134;2022-09-20T07:08:37;29.00;30.00
51215;DHT22;41093;47.444;19.134;2022-09-20T07:11:11;29.20;29.70
51215;DHT22;41093;47.444;19.134;2022-09-20T07:13:37;29.60;29.90
51215;DHT22;41093;47.444;19.134;2022-09-20T07:16:07;31.10;27.50
51215;DHT22;41093;47.444;19.134;2022-09-20T07:18:33;31.50;27.00
51215;DHT22;41093;47.444;19.134;2022-09-20T07:21:02;31.20;26.80
51215;DHT22;41093;47.444;19.134;2022-09-20T07:23:29;30.20;27.60
51215;DHT22;41093;47.444;19.134;2022-09-20T07:25:56;30.60;27.80
51215;DHT22;41093;47.444;19.134;2022-09-20T07:28:32;29.00;29.50
51215;DHT22;41093;47.444;19.134;2022-09-20T07:30:58;28.80;30.40
51215;DHT22;41093;47.444;19.134;2022-09-20T07:33:23;28.50;29.80
51215;DHT22;41093;47.444;19.134;2022-09-20T07:35:54;29.70;28.90
51215;DHT22;41093;47.444;19.134;2022-09-20T07:38:23;30.30;28.40
51215;DHT22;41093;47.444;19.134;2022-09-20T07:40:56;31.00;26.90
51215;DHT22;41093;47.444;19.134;2022-09-20T07:43:25;30.90;26.80
51215;DHT22;41093;47.444;19.134;2022-09-20T07:45:52;28.00;30.60
51215;DHT22;41093;47.444;19.134;2022-09-20T07:48:25;27.90;31.90
51215;DHT22;41093;47.444;19.134;2022-09-20T07:50:53;27.00;31.80
51215;DHT22;41093;47.444;19.134;2022-09-20T07:53:19;27.10;32.80
51215;DHT22;41093;47.444;19.134;2022-09-20T07:56:05;28.50;31.30
51215;DHT22;41093;47.444;19.134;2022-09-20T07:58:33;30.60;28.30
51215;DHT22;41093;47.444;19.134;2022-09-20T08:01:02;30.20;27.90
51215;DHT22;41093;47.444;19.134;2022-09-20T08:03:29;30.50;27.50
51215;DHT22;41093;47.444;19.134;2022-09-20T08:06:04;30.90;26.40
51215;DHT22;41093;47.444;19.134;2022-09-20T08:08:34;31.20;25.80
51215;DHT22;41093;47.444;19.134;2022-09-20T08:11:09;30.00;27.30
51215;DHT22;41093;47.444;19.134;2022-09-20T08:13:49;27.80;29.80
51215;DHT22;41093;47.444;19.134;2022-09-20T08:16:15;28.30;30.30
51215;DHT22;41093;47.444;19.134;2022-09-20T08:18:50;29.40;28.50
51215;DHT22;41093;47.444;19.134;2022-09-20T08:21:17;29.10;29.00
51215;DHT22;41093;47.444;19.134;2022-09-20T08:23:45;29.70;28.90
51215;DHT22;41093;47.444;19.134;2022-09-20T08:26:16;30.60;27.70
51215;DHT22;41093;47.444;19.134;2022-09-20T08:28:46;31.40;26.30
51215;DHT22;41093;47.444;19.134;2022-09-20T08:31:16;29.40;28.60
51215;DHT22;41093;47.444;19.134;2022-09-20T08:33:47;28.20;30.10
51215;DHT22;41093;47.444;19.134;2022-09-20T08:36:18;29.60;28.80
51215;DHT22;41093;47.444;19.134;2022-09-20T08:38:44;29.80;28.20
51215;DHT22;41093;47.444;19.134;2022-09-20T08:41:18;30.80;27.30
51215;DHT22;41093;47.444;19.134;2022-09-20T08:46:18;32.90;24.40
51215;DHT22;41093;47.444;19.134;2022-09-20T08:48:45;33.60;23.00
51215;DHT22;41093;47.444;19.134;2022-09-20T08:51:13;29.40;28.10
51215;DHT22;41093;47.444;19.134;2022-09-20T08:53:49;27.40;31.60
51215;DHT22;41093;47.444;19.134;2022-09-20T08:56:17;24.80;34.90
51215;DHT22;41093;47.444;19.134;2022-09-20T08:58:44;23.90;36.60
51215;DHT22;41093;47.444;19.134;2022-09-20T09:01:22;22.40;38.80
51215;DHT22;41093;47.444;19.134;2022-09-20T09:04:06;21.90;39.50
51215;DHT22;41093;47.444;19.134;2022-09-20T09:06:35;21.80;40.80
51215;DHT22;41093;47.444;19.134;2022-09-20T09:09:01;21.60;40.30
51215;DHT22;41093;47.444;19.134;2022-09-20T09:11:27;21.60;40.50
51215;DHT22;41093;47.444;19.134;2022-09-20T09:13:54;22.00;40.60
51215;DHT22;41093;47.444;19.134;2022-09-20T09:16:24;21.40;40.70
51215;DHT22;41093;47.444;19.134;2022-09-20T09:18:50;20.90;42.30
51215;DHT22;41093;47.444;19.134;2022-09-20T09:21:20;20.50;43.60
51215;DHT22;41093;47.444;19.134;2022-09-20T09:24:06;20.10;43.80
51215;DHT22;41093;47.444;19.134;2022-09-20T09:26:41;20.00;43.00
51215;DHT22;41093;47.444;19.134;2022-09-20T09:31:39;20.10;43.80
51215;DHT22;41093;47.444;19.134;2022-09-20T09:36:51;19.90;44.60
51215;DHT22;41093;47.444;19.134;2022-09-20T09:39:26;19.70;44.50
51215;DHT22;41093;47.444;19.134;2022-09-20T09:41:52;19.00;45.60
51215;DHT22;41093;47.444;19.134;2022-09-20T09:44:23;18.90;46.20
51215;DHT22;41093;47.444;19.134;2022-09-20T09:46:50;18.60;47.20
51215;DHT22;41093;47.444;19.134;2022-09-20T09:49:26;19.00;46.60
51215;DHT22;41093;47.444;19.134;2022-09-20T09:52:14;19.40;46.20
51215;DHT22;41093;47.444;19.134;2022-09-20T09:54:46;18.90;46.50
51215;DHT22;41093;47.444;19.134;2022-09-20T10:00:30;21.50;42.80
51215;DHT22;41093;47.444;19.134;2022-09-20T10:14:24;26.60;33.10
51215;DHT22;41093;47.444;19.134;2022-09-20T10:25:40;28.10;31.40
51215;DHT22;41093;47.444;19.134;2022-09-20T10:30:58;27.00;32.50
51215;DHT22;41093;47.444;19.134;2022-09-20T10:44:49;26.00;32.80
51215;DHT22;41093;47.444;19.134;2022-09-20T10:47:23;25.80;32.90
51215;DHT22;41093;47.444;19.134;2022-09-20T11:03:58;23.50;37.40
51215;DHT22;41093;47.444;19.134;2022-09-20T11:09:15;22.40;40.00
51215;DHT22;41093;47.444;19.134;2022-09-20T11:11:45;21.60;40.50
51215;DHT22;41093;47.444;19.134;2022-09-20T11:14:27;21.20;40.50
51215;DHT22;41093;47.444;19.134;2022-09-20T11:17:34;20.60;41.90
51215;DHT22;41093;47.444;19.134;2022-09-20T11:20:17;20.60;42.40
51215;DHT22;41093;47.444;19.134;2022-09-20T11:22:54;20.50;42.10
51215;DHT22;41093;47.444;19.134;2022-09-20T11:25:33;21.30;41.80
51215;DHT22;41093;47.444;19.134;2022-09-20T11:31:01;21.80;40.20
51215;DHT22;41093;47.444;19.134;2022-09-20T11:33:31;22.00;39.70
51215;DHT22;41093;47.444;19.134;2022-09-20T11:36:08;21.90;40.50
51215;DHT22;41093;47.444;19.134;2022-09-20T11:38:54;21.60;40.80
51215;DHT22;41093;47.444;19.134;2022-09-20T11:41:29;20.90;43.60
51215;DHT22;41093;47.444;19.134;2022-09-20T11:44:08;20.40;44.50
51215;DHT22;41093;47.444;19.134;2022-09-20T11:46:45;19.50;45.00
51215;DHT22;41093;47.444;19.134;2022-09-20T11:57:41;18.20;49.00
51215;DHT22;41093;47.444;19.134;2022-09-20T12:00:07;18.40;48.50
51215;DHT22;41093;47.444;19.134;2022-09-20T12:02:47;18.50;48.50
51215;DHT22;41093;47.444;19.134;2022-09-20T12:05:43;18.80;49.40
51215;DHT22;41093;47.444;19.134;2022-09-20T12:08:21;19.20;49.10
51215;DHT22;41093;47.444;19.134;2022-09-20T12:10:59;19.50;47.60
51215;DHT22;41093;47.444;19.134;2022-09-20T12:13:30;19.40;47.10
51215;DHT22;41093;47.444;19.134;2022-09-20T12:16:16;19.70;47.20
51215;DHT22;41093;47.444;19.134;2022-09-20T12:19:00;19.90;46.90
51215;DHT22;41093;47.444;19.134;2022-09-20T12:21:26;19.60;44.70
51215;DHT22;41093;47.444;19.134;2022-09-20T12:28:55;18.40;50.00
51215;DHT22;41093;47.444;19.134;2022-09-20T12:33:57;17.90;51.80
51215;DHT22;41093;47.444;19.134;2022-09-20T12:36:24;17.90;51.10
51215;DHT22;41093;47.444;19.134;2022-09-20T12:55:53;18.40;49.00
51215;DHT22;41093;47.444;19.134;2022-09-20T12:58:49;18.50;48.80
51215;DHT22;41093;47.444;19.134;2022-09-20T13:03:47;18.70;48.80
51215;DHT22;41093;47.444;19.134;2022-09-20T13:09:02;18.40;49.00
51215;DHT22;41093;47.444;19.134;2022-09-20T13:14:20;18.10;48.20
51215;DHT22;41093;47.444;19.134;2022-09-20T13:16:51;18.00;49.00
51215;DHT22;41093;47.444;19.134;2022-09-20T13:22:13;18.30;49.30
51215;DHT22;41093;47.444;19.134;2022-09-20T13:24:46;18.40;48.30
51215;DHT22;41093;47.444;19.134;2022-09-20T13:27:22;18.40;48.80
51215;DHT22;41093;47.444;19.134;2022-09-20T13:29:49;18.70;47.90
51215;DHT22;41093;47.444;19.134;2022-09-20T13:32:26;18.60;47.90
51215;DHT22;41093;47.444;19.134;2022-09-20T13:37:38;18.70;48.10
51215;DHT22;41093;47.444;19.134;2022-09-20T13:42:49;18.50;47.70
51215;DHT22;41093;47.444;19.134;2022-09-20T13:45:17;18.20;47.60
51215;DHT22;41093;47.444;19.134;2022-09-20T13:47:48;18.10;48.60
51215;DHT22;41093;47.444;19.134;2022-09-20T13:52:57;17.90;48.00
51215;DHT22;41093;47.444;19.134;2022-09-20T13:55:34;17.70;49.40
51215;DHT22;41093;47.444;19.134;2022-09-20T13:58:07;17.80;49.60
51215;DHT22;41093;47.444;19.134;2022-09-20T14:00:35;17.80;49.60
51215;DHT22;41093;47.444;19.134;2022-09-20T14:03:03;17.50;50.10
51215;DHT22;41093;47.444;19.134;2022-09-20T14:05:29;17.80;50.30
51215;DHT22;41093;47.444;19.134;2022-09-20T14:07:56;17.90;49.90
51215;DHT22;41093;47.444;19.134;2022-09-20T14:10:37;17.90;50.20
51215;DHT22;41093;47.444;19.134;2022-09-20T14:13:13;17.80;49.90
51215;DHT22;41093;47.444;19.134;2022-09-20T14:15:43;17.70;50.50
51215;DHT22;41093;47.444;19.134;2022-09-20T14:18:17;17.90;51.00
51215;DHT22;41093;47.444;19.134;2022-09-20T14:20:44;17.90;50.20
51215;DHT22;41093;47.444;19.134;2022-09-20T14:23:28;17.90;49.40
51215;DHT22;41093;47.444;19.134;2022-09-20T14:28:42;18.20;47.60
51215;DHT22;41093;47.444;19.134;2022-09-20T14:31:15;18.20;44.30
51215;DHT22;41093;47.444;19.134;2022-09-20T14:33:44;18.10;44.30
51215;DHT22;41093;47.444;19.134;2022-09-20T14:36:13;18.10;46.40
51215;DHT22;41093;47.444;19.134;2022-09-20T14:38:43;17.90;46.90
51215;DHT22;41093;47.444;19.134;2022-09-20T14:41:10;17.70;49.00
51215;DHT22;41093;47.444;19.134;2022-09-20T14:43:36;17.60;48.90
51215;DHT22;41093;47.444;19.134;2022-09-20T14:46:04;17.40;48.60
51215;DHT22;41093;47.444;19.134;2022-09-20T14:48:32;17.30;48.70
51215;DHT22;41093;47.444;19.134;2022-09-20T14:51:19;17.20;49.50
51215;DHT22;41093;47.444;19.134;2022-09-20T14:56:48;17.30;49.10
51215;DHT22;41093;47.444;19.134;2022-09-20T15:01:52;17.10;46.70
51215;DHT22;41093;47.444;19.134;2022-09-20T15:04:21;17.10;47.10
51215;DHT22;41093;47.444;19.134;2022-09-20T15:06:48;16.90;47.40
51215;DHT22;41093;47.444;19.134;2022-09-20T15:09:14;16.90;48.90
51215;DHT22;41093;47.444;19.134;2022-09-20T15:11:41;16.80;48.30
51215;DHT22;41093;47.444;19.134;2022-09-20T15:14:06;16.60;48.60
51215;DHT22;41093;47.444;19.134;2022-09-20T15:16:32;16.50;48.60
51215;DHT22;41093;47.444;19.134;2022-09-20T15:18:58;16.40;50.10
51215;DHT22;41093;47.444;19.134;2022-09-20T15:21:24;16.30;50.30
51215;DHT22;41093;47.444;19.134;2022-09-20T15:23:50;16.20;51.00
51215;DHT22;41093;47.444;19.134;2022-09-20T15:26:18;16.20;51.20
51215;DHT22;41093;47.444;19.134;2022-09-20T15:28:45;16.10;50.90
51215;DHT22;41093;47.444;19.134;2022-09-20T15:31:12;15.90;51.30
51215;DHT22;41093;47.444;19.134;2022-09-20T15:33:39;15.90;51.80
51215;DHT22;41093;47.444;19.134;2022-09-20T15:36:06;15.70;52.20
51215;DHT22;41093;47.444;19.134;2022-09-20T15:38:32;15.50;53.80
51215;DHT22;41093;47.444;19.134;2022-09-20T15:41:01;15.40;54.80
51215;DHT22;41093;47.444;19.134;2022-09-20T15:43:31;15.30;56.00
51215;DHT22;41093;47.444;19.134;2022-09-20T15:46:16;15.20;57.10
51215;DHT22;41093;47.444;19.134;2022-09-20T15:48:44;15.10;57.10
51215;DHT22;41093;47.444;19.134;2022-09-20T15:51:11;15.10;58.00
51215;DHT22;41093;47.444;19.134;2022-09-20T15:53:42;15.00;58.40
51215;DHT22;41093;47.444;19.134;2022-09-20T15:56:25;15.00;58.40
51215;DHT22;41093;47.444;19.134;2022-09-20T15:58:54;14.90;58.10
51215;DHT22;41093;47.444;19.134;2022-09-20T16:01:35;14.70;57.00
51215;DHT22;41093;47.444;19.134;2022-09-20T16:04:08;14.60;57.80
51215;DHT22;41093;47.444;19.134;2022-09-20T16:06:35;14.50;57.90
51215;DHT22;41093;47.444;19.134;2022-09-20T16:09:02;14.40;58.60
51215;DHT22;41093;47.444;19.134;2022-09-20T16:11:28;14.40;59.90
51215;DHT22;41093;47.444;19.134;2022-09-20T16:13:56;14.40;60.40
51215;DHT22;41093;47.444;19.134;2022-09-20T16:16:23;14.30;61.80
51215;DHT22;41093;47.444;19.134;2022-09-20T16:18:49;14.30;62.40
51215;DHT22;41093;47.444;19.134;2022-09-20T16:21:35;14.20;62.90
51215;DHT22;41093;47.444;19.134;2022-09-20T16:24:01;14.10;63.50
51215;DHT22;41093;47.444;19.134;2022-09-20T16:26:27;14.00;64.00
51215;DHT22;41093;47.444;19.134;2022-09-20T16:28:53;13.90;64.80
51215;DHT22;41093;47.444;19.134;2022-09-20T16:31:44;13.90;64.90
51215;DHT22;41093;47.444;19.134;2022-09-20T16:36:41;13.80;67.80
51215;DHT22;41093;47.444;19.134;2022-09-20T16:39:09;13.70;69.40
51215;DHT22;41093;47.444;19.134;2022-09-20T16:41:34;13.60;70.20
51215;DHT22;41093;47.444;19.134;2022-09-20T16:44:01;13.60;71.60
51215;DHT22;41093;47.444;19.134;2022-09-20T16:46:27;13.60;72.60
51215;DHT22;41093;47.444;19.134;2022-09-20T16:48:54;13.40;73.40
51215;DHT22;41093;47.444;19.134;2022-09-20T16:51:20;13.30;76.10
51215;DHT22;41093;47.444;19.134;2022-09-20T16:53:50;13.20;76.00
51215;DHT22;41093;47.444;19.134;2022-09-20T16:56:25;13.10;77.20
51215;DHT22;41093;47.444;19.134;2022-09-20T16:58:52;13.00;77.70
51215;DHT22;41093;47.444;19.134;2022-09-20T17:01:18;12.80;77.70
51215;DHT22;41093;47.444;19.134;2022-09-20T17:03:44;12.80;78.70
51215;DHT22;41093;47.444;19.134;2022-09-20T17:06:12;12.70;78.50
51215;DHT22;41093;47.444;19.134;2022-09-20T17:08:39;12.60;79.00
51215;DHT22;41093;47.444;19.134;2022-09-20T17:11:07;12.50;79.40
51215;DHT22;41093;47.444;19.134;2022-09-20T17:13:35;12.30;78.60
51215;DHT22;41093;47.444;19.134;2022-09-20T17:16:29;12.30;78.90
51215;DHT22;41093;47.444;19.134;2022-09-20T17:18:59;12.10;78.80
51215;DHT22;41093;47.444;19.134;2022-09-20T17:21:26;12.00;79.40
51215;DHT22;41093;47.444;19.134;2022-09-20T17:23:54;11.90;80.70
51215;DHT22;41093;47.444;19.134;2022-09-20T17:26:23;11.80;81.20
51215;DHT22;41093;47.444;19.134;2022-09-20T17:28:51;11.70;80.70
51215;DHT22;41093;47.444;19.134;2022-09-20T17:31:23;11.60;81.60
51215;DHT22;41093;47.444;19.134;2022-09-20T17:33:50;11.50;82.60
51215;DHT22;41093;47.444;19.134;2022-09-20T17:36:17;11.50;82.60
51215;DHT22;41093;47.444;19.134;2022-09-20T17:38:51;11.50;82.70
51215;DHT22;41093;47.444;19.134;2022-09-20T17:41:18;11.40;81.80
51215;DHT22;41093;47.444;19.134;2022-09-20T17:43:45;11.30;82.20
51215;DHT22;41093;47.444;19.134;2022-09-20T17:46:19;11.30;82.40
51215;DHT22;41093;47.444;19.134;2022-09-20T17:48:49;11.10;82.80
51215;DHT22;41093;47.444;19.134;2022-09-20T17:51:17;11.10;83.40
51215;DHT22;41093;47.444;19.134;2022-09-20T17:53:44;11.00;83.10
51215;DHT22;41093;47.444;19.134;2022-09-20T17:56:12;10.90;82.70
51215;DHT22;41093;47.444;19.134;2022-09-20T17:58:39;10.90;83.30
51215;DHT22;41093;47.444;19.134;2022-09-20T18:01:08;10.80;84.00
51215;DHT22;41093;47.444;19.134;2022-09-20T18:03:36;10.80;83.30
51215;DHT22;41093;47.444;19.134;2022-09-20T18:06:16;10.80;84.60
51215;DHT22;41093;47.444;19.134;2022-09-20T18:08:50;10.70;84.80
51215;DHT22;41093;47.444;19.134;2022-09-20T18:11:18;10.70;84.70
51215;DHT22;41093;47.444;19.134;2022-09-20T18:13:45;10.70;84.40
51215;DHT22;41093;47.444;19.134;2022-09-20T18:16:13;10.70;84.30
51215;DHT22;41093;47.444;19.134;2022-09-20T18:18:40;10.70;83.70
51215;DHT22;41093;47.444;19.134;2022-09-20T18:21:21;10.70;83.20
51215;DHT22;41093;47.444;19.134;2022-09-20T18:23:47;10.70;82.10
51215;DHT22;41093;47.444;19.134;2022-09-20T18:26:16;10.70;81.80
51215;DHT22;41093;47.444;19.134;2022-09-20T18:31:16;10.60;82.10
51215;DHT22;41093;47.444;19.134;2022-09-20T18:33:43;10.60;82.30
51215;DHT22;41093;47.444;19.134;2022-09-20T18:36:09;10.60;82.20
51215;DHT22;41093;47.444;19.134;2022-09-20T18:38:35;10.50;82.10
51215;DHT22;41093;47.444;19.134;2022-09-20T18:41:02;10.40;82.30
51215;DHT22;41093;47.444;19.134;2022-09-20T18:43:31;10.40;82.40
51215;DHT22;41093;47.444;19.134;2022-09-20T18:46:00;10.40;82.60
51215;DHT22;41093;47.444;19.134;2022-09-20T18:48:31;10.40;82.80
51215;DHT22;41093;47.444;19.134;2022-09-20T18:50:59;10.40;83.00
51215;DHT22;41093;47.444;19.134;2022-09-20T18:53:33;10.30;83.20
51215;DHT22;41093;47.444;19.134;2022-09-20T18:58:44;10.10;83.50
51215;DHT22;41093;47.444;19.134;2022-09-20T19:07:01;10.10;83.80
51215;DHT22;41093;47.444;19.134;2022-09-20T19:15:26;9.90;84.00
51215;DHT22;41093;47.444;19.134;2022-09-20T19:21:20;9.90;83.90
51215;DHT22;41093;47.444;19.134;2022-09-20T19:26:24;9.80;83.70
51215;DHT22;41093;47.444;19.134;2022-09-20T19:28:54;9.80;83.30
51215;DHT22;41093;47.444;19.134;2022-09-20T19:31:27;9.80;83.40
51215;DHT22;41093;47.444;19.134;2022-09-20T19:33:55;9.80;83.30
51215;DHT22;41093;47.444;19.134;2022-09-20T19:36:40;9.80;83.20
51215;DHT22;41093;47.444;19.134;2022-09-20T19:39:41;9.60;83.40
51215;DHT22;41093;47.444;19.134;2022-09-20T19:50:52;9.30;84.60
51215;DHT22;41093;47.444;19.134;2022-09-20T19:53:20;9.10;84.70
51215;DHT22;41093;47.444;19.134;2022-09-20T19:56:13;9.10;85.10
51215;DHT22;41093;47.444;19.134;2022-09-20T19:58:41;9.00;85.40
51215;DHT22;41093;47.444;19.134;2022-09-20T20:01:08;9.10;85.60
51215;DHT22;41093;47.444;19.134;2022-09-20T20:03:34;9.10;85.40
51215;DHT22;41093;47.444;19.134;2022-09-20T20:06:12;9.10;85.30
51215;DHT22;41093;47.444;19.134;2022-09-20T20:12:13;9.00;85.60
51215;DHT22;41093;47.444;19.134;2022-09-20T20:15:03;9.00;86.00
51215;DHT22;41093;47.444;19.134;2022-09-20T20:17:39;9.10;86.10
51215;DHT22;41093;47.444;19.134;2022-09-20T20:25:27;9.00;86.20
51215;DHT22;41093;47.444;19.134;2022-09-20T20:27:59;8.90;86.20
51215;DHT22;41093;47.444;19.134;2022-09-20T20:30:24;8.90;86.30
51215;DHT22;41093;47.444;19.134;2022-09-20T20:32:54;8.90;86.50
51215;DHT22;41093;47.444;19.134;2022-09-20T20:35:23;8.90;86.70
51215;DHT22;41093;47.444;19.134;2022-09-20T20:37:50;9.00;86.90
51215;DHT22;41093;47.444;19.134;2022-09-20T20:40:16;9.10;86.90
51215;DHT22;41093;47.444;19.134;2022-09-20T20:42:42;9.10;86.80
51215;DHT22;41093;47.444;19.134;2022-09-20T20:45:08;9.20;86.70
51215;DHT22;41093;47.444;19.134;2022-09-20T20:47:34;9.20;86.40
51215;DHT22;41093;47.444;19.134;2022-09-20T20:50:00;9.10;86.40
51215;DHT22;41093;47.444;19.134;2022-09-20T20:52:26;9.20;86.50
51215;DHT22;41093;47.444;19.134;2022-09-20T20:54:51;9.10;86.50
51215;DHT22;41093;47.444;19.134;2022-09-20T20:57:17;9.10;86.60
51215;DHT22;41093;47.444;19.134;2022-09-20T20:59:44;9.20;86.60
51215;DHT22;41093;47.444;19.134;2022-09-20T21:02:10;9.20;86.60
51215;DHT22;41093;47.444;19.134;2022-09-20T21:04:36;9.10;86.70
51215;DHT22;41093;47.444;19.134;2022-09-20T21:07:04;9.10;86.70
51215;DHT22;41093;47.444;19.134;2022-09-20T21:09:30;9.10;86.80
51215;DHT22;41093;47.444;19.134;2022-09-20T21:11:56;9.10;86.80
51215;DHT22;41093;47.444;19.134;2022-09-20T21:14:22;9.10;87.10
51215;DHT22;41093;47.444;19.134;2022-09-20T21:16:50;9.10;87.00
51215;DHT22;41093;47.444;19.134;2022-09-20T21:19:16;9.10;86.90
51215;DHT22;41093;47.444;19.134;2022-09-20T21:21:45;9.00;86.90
51215;DHT22;41093;47.444;19.134;2022-09-20T21:24:12;8.90;86.80
51215;DHT22;41093;47.444;19.134;2022-09-20T21:26:40;8.80;87.10
51215;DHT22;41093;47.444;19.134;2022-09-20T21:29:08;8.90;87.40
51215;DHT22;41093;47.444;19.134;2022-09-20T21:31:37;8.90;87.30
51215;DHT22;41093;47.444;19.134;2022-09-20T21:34:07;8.80;87.50
51215;DHT22;41093;47.444;19.134;2022-09-20T21:36:34;8.80;87.50
51215;DHT22;41093;47.444;19.134;2022-09-20T21:39:00;8.70;87.50